sensor_id;sensor_type;location;lat;lon;timestamp;P1;durP1;ratioP1;P2;durP2;ratioP2
12369;SDS011;6249;52.128;9.986;2023-01-31T00:01:43;28.37;;;3.53;;
12369;SDS011;6249;52.128;9.986;2023-01-31T00:05:06;22.83;;;3.03;;
12369;SDS011;6249;52.128;9.986;2023-01-31T00:08:26;25.70;;;3.53;;
12369;SDS011;6249;52.128;9.986;2023-01-31T00:11:49;24.37;;;3.57;;
12369;SDS011;6249;52.128;9.986;2023-01-31T00:15:10;19.23;;;3.63;;
12369;SDS011;6249;52.128;9.986;2023-01-31T00:18:32;28.83;;;3.70;;
12369;SDS011;6249;52.128;9.986;2023-01-31T00:21:55;27.57;;;3.70;;
12369;SDS011;6249;52.128;9.986;2023-01-31T00:25:16;31.47;;;2.80;;
12369;SDS011;6249;52.128;9.986;2023-01-31T00:28:40;31.77;;;6.57;;
12369;SDS011;6249;52.128;9.986;2023-01-31T00:32:01;24.53;;;3.23;;
12369;SDS011;6249;52.128;9.986;2023-01-31T00:35:27;17.27;;;2.77;;
12369;SDS011;6249;52.128;9.986;2023-01-31T00:38:51;27.60;;;2.77;;
12369;SDS011;6249;52.128;9.986;2023-01-31T00:42:15;25.47;;;3.23;;
12369;SDS011;6249;52.128;9.986;2023-01-31T00:45:36;21.10;;;3.33;;
12369;SDS011;6249;52.128;9.986;2023-01-31T00:49:02;22.33;;;2.20;;
12369;SDS011;6249;52.128;9.986;2023-01-31T00:52:23;20.97;;;2.80;;
12369;SDS011;6249;52.128;9.986;2023-01-31T00:55:43;12.90;;;2.87;;
12369;SDS011;6249;52.128;9.986;2023-01-31T00:59:04;13.17;;;2.60;;
12369;SDS011;6249;52.128;9.986;2023-01-31T01:02:27;24.93;;;3.10;;
12369;SDS011;6249;52.128;9.986;2023-01-31T01:05:50;13.30;;;2.00;;
12369;SDS011;6249;52.128;9.986;2023-01-31T01:09:11;20.50;;;3.47;;
12369;SDS011;6249;52.128;9.986;2023-01-31T01:12:31;14.87;;;2.50;;
12369;SDS011;6249;52.128;9.986;2023-01-31T01:15:52;19.63;;;2.60;;
12369;SDS011;6249;52.128;9.986;2023-01-31T01:19:17;10.43;;;2.07;;
12369;SDS011;6249;52.128;9.986;2023-01-31T01:22:38;14.17;;;2.23;;
12369;SDS011;6249;52.128;9.986;2023-01-31T01:25:59;12.10;;;2.07;;
12369;SDS011;6249;52.128;9.986;2023-01-31T01:29:20;17.47;;;2.77;;
12369;SDS011;6249;52.128;9.986;2023-01-31T01:32:40;11.63;;;2.60;;
12369;SDS011;6249;52.128;9.986;2023-01-31T01:36:04;22.50;;;4.80;;
12369;SDS011;6249;52.128;9.986;2023-01-31T01:39:28;22.53;;;3.80;;
12369;SDS011;6249;52.128;9.986;2023-01-31T01:42:53;22.87;;;3.13;;
12369;SDS011;6249;52.128;9.986;2023-01-31T01:46:36;23.77;;;3.47;;
12369;SDS011;6249;52.128;9.986;2023-01-31T01:53:36;24.00;;;2.83;;
12369;SDS011;6249;52.128;9.986;2023-01-31T01:57:02;16.60;;;3.50;;
12369;SDS011;6249;52.128;9.986;2023-01-31T02:00:26;17.63;;;3.67;;
12369;SDS011;6249;52.128;9.986;2023-01-31T02:03:51;22.63;;;2.87;;
12369;SDS011;6249;52.128;9.986;2023-01-31T02:07:12;22.60;;;4.03;;
12369;SDS011;6249;52.128;9.986;2023-01-31T02:10:35;21.77;;;3.03;;
12369;SDS011;6249;52.128;9.986;2023-01-31T02:14:07;23.70;;;5.13;;
12369;SDS011;6249;52.128;9.986;2023-01-31T02:17:29;29.77;;;5.27;;
12369;SDS011;6249;52.128;9.986;2023-01-31T02:25:00;19.83;;;3.30;;
12369;SDS011;6249;52.128;9.986;2023-01-31T02:35:25;18.83;;;2.43;;
12369;SDS011;6249;52.128;9.986;2023-01-31T02:42:56;20.40;;;2.60;;
12369;SDS011;6249;52.128;9.986;2023-01-31T02:46:33;10.83;;;2.00;;
12369;SDS011;6249;52.128;9.986;2023-01-31T02:53:47;21.47;;;2.87;;
12369;SDS011;6249;52.128;9.986;2023-01-31T02:57:15;16.40;;;3.00;;
12369;SDS011;6249;52.128;9.986;2023-01-31T03:00:37;8.50;;;2.13;;
12369;SDS011;6249;52.128;9.986;2023-01-31T03:04:06;40.67;;;3.50;;
12369;SDS011;6249;52.128;9.986;2023-01-31T03:07:30;12.03;;;2.37;;
12369;SDS011;6249;52.128;9.986;2023-01-31T03:11:00;22.10;;;3.10;;
12369;SDS011;6249;52.128;9.986;2023-01-31T03:14:31;28.70;;;3.70;;
12369;SDS011;6249;52.128;9.986;2023-01-31T03:18:09;30.50;;;3.33;;
12369;SDS011;6249;52.128;9.986;2023-01-31T03:21:33;17.93;;;3.13;;
12369;SDS011;6249;52.128;9.986;2023-01-31T03:24:58;25.30;;;3.17;;
12369;SDS011;6249;52.128;9.986;2023-01-31T03:28:22;17.20;;;3.57;;
12369;SDS011;6249;52.128;9.986;2023-01-31T03:31:59;18.20;;;3.40;;
12369;SDS011;6249;52.128;9.986;2023-01-31T03:35:30;17.70;;;3.23;;
12369;SDS011;6249;52.128;9.986;2023-01-31T03:46:00;16.57;;;3.00;;
12369;SDS011;6249;52.128;9.986;2023-01-31T03:49:28;19.90;;;3.83;;
12369;SDS011;6249;52.128;9.986;2023-01-31T03:52:54;21.27;;;3.27;;
12369;SDS011;6249;52.128;9.986;2023-01-31T03:59:47;23.37;;;3.83;;
12369;SDS011;6249;52.128;9.986;2023-01-31T04:03:18;17.60;;;3.87;;
12369;SDS011;6249;52.128;9.986;2023-01-31T04:06:46;18.40;;;2.23;;
12369;SDS011;6249;52.128;9.986;2023-01-31T04:10:11;14.43;;;2.87;;
12369;SDS011;6249;52.128;9.986;2023-01-31T04:13:34;23.17;;;2.80;;
12369;SDS011;6249;52.128;9.986;2023-01-31T04:16:55;14.57;;;2.00;;
12369;SDS011;6249;52.128;9.986;2023-01-31T04:20:17;21.47;;;4.60;;
12369;SDS011;6249;52.128;9.986;2023-01-31T04:23:37;30.30;;;3.83;;
12369;SDS011;6249;52.128;9.986;2023-01-31T04:26:58;24.63;;;3.80;;
12369;SDS011;6249;52.128;9.986;2023-01-31T04:30:18;25.43;;;3.00;;
12369;SDS011;6249;52.128;9.986;2023-01-31T04:33:39;24.40;;;3.53;;
12369;SDS011;6249;52.128;9.986;2023-01-31T04:36:59;22.40;;;3.27;;
12369;SDS011;6249;52.128;9.986;2023-01-31T04:40:20;18.40;;;3.00;;
12369;SDS011;6249;52.128;9.986;2023-01-31T04:43:41;24.97;;;3.63;;
12369;SDS011;6249;52.128;9.986;2023-01-31T04:47:03;32.27;;;3.80;;
12369;SDS011;6249;52.128;9.986;2023-01-31T04:50:26;13.73;;;2.43;;
12369;SDS011;6249;52.128;9.986;2023-01-31T04:53:47;26.97;;;3.20;;
12369;SDS011;6249;52.128;9.986;2023-01-31T04:57:08;43.43;;;3.27;;
12369;SDS011;6249;52.128;9.986;2023-01-31T05:00:28;26.27;;;3.10;;
12369;SDS011;6249;52.128;9.986;2023-01-31T05:03:49;38.53;;;3.80;;
12369;SDS011;6249;52.128;9.986;2023-01-31T05:07:09;30.63;;;3.17;;
12369;SDS011;6249;52.128;9.986;2023-01-31T05:10:33;19.17;;;3.20;;
12369;SDS011;6249;52.128;9.986;2023-01-31T05:13:55;29.63;;;3.73;;
12369;SDS011;6249;52.128;9.986;2023-01-31T05:17:17;33.53;;;3.80;;
12369;SDS011;6249;52.128;9.986;2023-01-31T05:20:45;19.20;;;3.10;;
12369;SDS011;6249;52.128;9.986;2023-01-31T05:24:09;17.77;;;3.00;;
12369;SDS011;6249;52.128;9.986;2023-01-31T05:27:32;14.83;;;2.87;;
12369;SDS011;6249;52.128;9.986;2023-01-31T05:31:00;20.43;;;3.57;;
12369;SDS011;6249;52.128;9.986;2023-01-31T05:34:22;20.90;;;3.30;;
12369;SDS011;6249;52.128;9.986;2023-01-31T05:37:44;32.33;;;3.30;;
12369;SDS011;6249;52.128;9.986;2023-01-31T05:41:07;13.30;;;2.57;;
12369;SDS011;6249;52.128;9.986;2023-01-31T05:44:28;15.60;;;3.60;;
12369;SDS011;6249;52.128;9.986;2023-01-31T05:47:51;14.83;;;3.10;;
12369;SDS011;6249;52.128;9.986;2023-01-31T05:51:12;18.17;;;3.00;;
12369;SDS011;6249;52.128;9.986;2023-01-31T05:54:33;24.67;;;3.13;;
12369;SDS011;6249;52.128;9.986;2023-01-31T05:57:55;29.53;;;4.70;;
12369;SDS011;6249;52.128;9.986;2023-01-31T06:01:20;27.80;;;3.43;;
12369;SDS011;6249;52.128;9.986;2023-01-31T06:04:46;19.97;;;3.57;;
12369;SDS011;6249;52.128;9.986;2023-01-31T06:08:08;19.93;;;3.80;;
12369;SDS011;6249;52.128;9.986;2023-01-31T06:11:30;25.07;;;4.53;;
12369;SDS011;6249;52.128;9.986;2023-01-31T06:14:50;22.07;;;5.70;;
12369;SDS011;6249;52.128;9.986;2023-01-31T06:18:11;11.93;;;3.13;;
12369;SDS011;6249;52.128;9.986;2023-01-31T06:21:32;23.27;;;4.87;;
12369;SDS011;6249;52.128;9.986;2023-01-31T06:24:53;21.53;;;3.60;;
12369;SDS011;6249;52.128;9.986;2023-01-31T06:28:13;15.13;;;3.87;;
12369;SDS011;6249;52.128;9.986;2023-01-31T06:31:34;15.70;;;3.70;;
12369;SDS011;6249;52.128;9.986;2023-01-31T06:34:54;15.10;;;3.37;;
12369;SDS011;6249;52.128;9.986;2023-01-31T06:38:22;26.33;;;5.50;;
12369;SDS011;6249;52.128;9.986;2023-01-31T06:41:43;19.83;;;3.00;;
12369;SDS011;6249;52.128;9.986;2023-01-31T06:45:03;23.00;;;4.00;;
12369;SDS011;6249;52.128;9.986;2023-01-31T06:48:24;26.43;;;3.97;;
12369;SDS011;6249;52.128;9.986;2023-01-31T06:51:47;15.10;;;3.17;;
12369;SDS011;6249;52.128;9.986;2023-01-31T06:55:08;39.87;;;5.07;;
12369;SDS011;6249;52.128;9.986;2023-01-31T06:58:29;32.63;;;4.60;;
12369;SDS011;6249;52.128;9.986;2023-01-31T07:01:50;23.77;;;4.50;;
12369;SDS011;6249;52.128;9.986;2023-01-31T07:05:10;28.03;;;4.03;;
12369;SDS011;6249;52.128;9.986;2023-01-31T07:08:31;27.43;;;4.07;;
12369;SDS011;6249;52.128;9.986;2023-01-31T07:11:52;18.60;;;5.03;;
12369;SDS011;6249;52.128;9.986;2023-01-31T07:15:13;21.70;;;3.97;;
12369;SDS011;6249;52.128;9.986;2023-01-31T07:18:33;19.20;;;4.80;;
12369;SDS011;6249;52.128;9.986;2023-01-31T07:21:56;23.57;;;4.93;;
12369;SDS011;6249;52.128;9.986;2023-01-31T07:25:17;16.17;;;4.80;;
12369;SDS011;6249;52.128;9.986;2023-01-31T07:28:40;32.37;;;6.17;;
12369;SDS011;6249;52.128;9.986;2023-01-31T07:32:07;22.97;;;5.40;;
12369;SDS011;6249;52.128;9.986;2023-01-31T07:35:30;29.03;;;6.83;;
12369;SDS011;6249;52.128;9.986;2023-01-31T07:38:56;25.33;;;6.60;;
12369;SDS011;6249;52.128;9.986;2023-01-31T07:42:17;29.10;;;7.83;;
12369;SDS011;6249;52.128;9.986;2023-01-31T07:45:38;20.63;;;4.73;;
12369;SDS011;6249;52.128;9.986;2023-01-31T07:49:04;23.73;;;5.17;;
12369;SDS011;6249;52.128;9.986;2023-01-31T07:52:24;30.90;;;6.97;;
12369;SDS011;6249;52.128;9.986;2023-01-31T07:55:47;27.43;;;7.00;;
12369;SDS011;6249;52.128;9.986;2023-01-31T07:59:08;25.00;;;7.10;;
12369;SDS011;6249;52.128;9.986;2023-01-31T08:02:28;16.00;;;5.47;;
12369;SDS011;6249;52.128;9.986;2023-01-31T08:06:28;21.13;;;5.90;;
12369;SDS011;6249;52.128;9.986;2023-01-31T08:09:52;24.10;;;5.20;;
12369;SDS011;6249;52.128;9.986;2023-01-31T08:13:15;21.33;;;6.20;;
12369;SDS011;6249;52.128;9.986;2023-01-31T08:16:36;21.80;;;5.40;;
12369;SDS011;6249;52.128;9.986;2023-01-31T08:19:59;31.33;;;5.77;;
12369;SDS011;6249;52.128;9.986;2023-01-31T08:23:21;27.93;;;4.90;;
12369;SDS011;6249;52.128;9.986;2023-01-31T08:26:45;21.63;;;4.70;;
12369;SDS011;6249;52.128;9.986;2023-01-31T08:30:06;29.10;;;6.43;;
12369;SDS011;6249;52.128;9.986;2023-01-31T08:33:27;23.87;;;4.00;;
12369;SDS011;6249;52.128;9.986;2023-01-31T08:36:47;27.37;;;5.67;;
12369;SDS011;6249;52.128;9.986;2023-01-31T08:40:13;27.07;;;5.33;;
12369;SDS011;6249;52.128;9.986;2023-01-31T08:43:33;28.83;;;6.33;;
12369;SDS011;6249;52.128;9.986;2023-01-31T08:46:57;23.90;;;5.53;;
12369;SDS011;6249;52.128;9.986;2023-01-31T08:50:21;18.83;;;4.60;;
12369;SDS011;6249;52.128;9.986;2023-01-31T08:53:47;15.43;;;4.80;;
12369;SDS011;6249;52.128;9.986;2023-01-31T08:57:08;24.70;;;5.47;;
12369;SDS011;6249;52.128;9.986;2023-01-31T09:00:28;28.07;;;6.47;;
12369;SDS011;6249;52.128;9.986;2023-01-31T09:03:51;32.07;;;7.10;;
12369;SDS011;6249;52.128;9.986;2023-01-31T09:07:16;21.20;;;5.00;;
12369;SDS011;6249;52.128;9.986;2023-01-31T09:10:40;25.03;;;7.10;;
12369;SDS011;6249;52.128;9.986;2023-01-31T09:14:01;21.90;;;8.23;;
12369;SDS011;6249;52.128;9.986;2023-01-31T09:17:24;31.27;;;6.90;;
12369;SDS011;6249;52.128;9.986;2023-01-31T09:20:44;20.83;;;6.70;;
12369;SDS011;6249;52.128;9.986;2023-01-31T09:24:08;19.93;;;6.50;;
12369;SDS011;6249;52.128;9.986;2023-01-31T09:27:31;20.93;;;5.00;;
12369;SDS011;6249;52.128;9.986;2023-01-31T09:30:54;19.20;;;6.07;;
12369;SDS011;6249;52.128;9.986;2023-01-31T09:34:15;28.40;;;7.40;;
12369;SDS011;6249;52.128;9.986;2023-01-31T09:37:43;17.17;;;4.77;;
12369;SDS011;6249;52.128;9.986;2023-01-31T09:41:04;37.53;;;6.77;;
12369;SDS011;6249;52.128;9.986;2023-01-31T09:44:36;18.57;;;5.77;;
12369;SDS011;6249;52.128;9.986;2023-01-31T09:48:01;28.60;;;6.10;;
12369;SDS011;6249;52.128;9.986;2023-01-31T09:51:24;22.10;;;4.73;;
12369;SDS011;6249;52.128;9.986;2023-01-31T09:54:45;19.20;;;5.40;;
12369;SDS011;6249;52.128;9.986;2023-01-31T10:05:26;18.80;;;5.87;;
12369;SDS011;6249;52.128;9.986;2023-01-31T10:09:00;28.97;;;9.07;;
12369;SDS011;6249;52.128;9.986;2023-01-31T10:12:56;23.87;;;9.00;;
12369;SDS011;6249;52.128;9.986;2023-01-31T10:19:56;21.93;;;8.10;;
12369;SDS011;6249;52.128;9.986;2023-01-31T10:30:59;17.53;;;7.63;;
12369;SDS011;6249;52.128;9.986;2023-01-31T10:37:54;20.40;;;8.40;;
12369;SDS011;6249;52.128;9.986;2023-01-31T10:41:42;18.83;;;7.27;;
12369;SDS011;6249;52.128;9.986;2023-01-31T10:45:24;12.47;;;5.77;;
12369;SDS011;6249;52.128;9.986;2023-01-31T10:48:52;21.30;;;7.97;;
12369;SDS011;6249;52.128;9.986;2023-01-31T10:55:57;14.40;;;5.20;;
12369;SDS011;6249;52.128;9.986;2023-01-31T10:59:31;14.77;;;5.67;;
12369;SDS011;6249;52.128;9.986;2023-01-31T11:02:54;13.20;;;5.43;;
12369;SDS011;6249;52.128;9.986;2023-01-31T11:06:19;15.43;;;3.87;;
12369;SDS011;6249;52.128;9.986;2023-01-31T11:09:46;10.17;;;3.53;;
12369;SDS011;6249;52.128;9.986;2023-01-31T11:13:16;7.60;;;3.03;;
12369;SDS011;6249;52.128;9.986;2023-01-31T11:16:38;10.30;;;3.80;;
12369;SDS011;6249;52.128;9.986;2023-01-31T11:19:59;9.33;;;3.60;;
12369;SDS011;6249;52.128;9.986;2023-01-31T11:23:21;12.03;;;3.50;;
12369;SDS011;6249;52.128;9.986;2023-01-31T11:26:53;6.57;;;3.20;;
12369;SDS011;6249;52.128;9.986;2023-01-31T11:30:36;7.87;;;2.70;;
12369;SDS011;6249;52.128;9.986;2023-01-31T11:34:00;12.60;;;4.10;;
12369;SDS011;6249;52.128;9.986;2023-01-31T11:37:22;8.87;;;3.90;;
12369;SDS011;6249;52.128;9.986;2023-01-31T11:40:49;9.60;;;3.13;;
12369;SDS011;6249;52.128;9.986;2023-01-31T11:44:12;10.33;;;2.80;;
12369;SDS011;6249;52.128;9.986;2023-01-31T11:47:40;11.73;;;3.20;;
12369;SDS011;6249;52.128;9.986;2023-01-31T11:51:06;13.67;;;3.10;;
12369;SDS011;6249;52.128;9.986;2023-01-31T11:54:30;4.70;;;2.57;;
12369;SDS011;6249;52.128;9.986;2023-01-31T11:57:56;7.13;;;2.87;;
12369;SDS011;6249;52.128;9.986;2023-01-31T12:01:21;13.13;;;3.30;;
12369;SDS011;6249;52.128;9.986;2023-01-31T12:04:45;15.63;;;4.10;;
12369;SDS011;6249;52.128;9.986;2023-01-31T12:11:54;8.93;;;3.83;;
12369;SDS011;6249;52.128;9.986;2023-01-31T12:15:21;13.40;;;4.30;;
12369;SDS011;6249;52.128;9.986;2023-01-31T12:22:35;14.40;;;4.93;;
12369;SDS011;6249;52.128;9.986;2023-01-31T12:26:10;16.13;;;4.27;;
12369;SDS011;6249;52.128;9.986;2023-01-31T12:33:39;13.47;;;5.33;;
12369;SDS011;6249;52.128;9.986;2023-01-31T12:40:47;7.33;;;4.03;;
12369;SDS011;6249;52.128;9.986;2023-01-31T12:51:45;9.00;;;4.73;;
12369;SDS011;6249;52.128;9.986;2023-01-31T12:58:56;14.50;;;5.20;;
12369;SDS011;6249;52.128;9.986;2023-01-31T13:06:19;13.20;;;6.23;;
12369;SDS011;6249;52.128;9.986;2023-01-31T13:09:49;14.60;;;7.10;;
12369;SDS011;6249;52.128;9.986;2023-01-31T13:13:27;16.17;;;6.10;;
12369;SDS011;6249;52.128;9.986;2023-01-31T13:17:12;20.50;;;8.40;;
12369;SDS011;6249;52.128;9.986;2023-01-31T13:24:20;22.00;;;9.30;;
12369;SDS011;6249;52.128;9.986;2023-01-31T13:27:59;14.43;;;5.33;;
12369;SDS011;6249;52.128;9.986;2023-01-31T13:31:24;20.30;;;8.03;;
12369;SDS011;6249;52.128;9.986;2023-01-31T13:34:51;14.93;;;7.80;;
12369;SDS011;6249;52.128;9.986;2023-01-31T13:38:16;16.03;;;8.30;;
12369;SDS011;6249;52.128;9.986;2023-01-31T13:41:39;12.57;;;6.00;;
12369;SDS011;6249;52.128;9.986;2023-01-31T13:45:05;12.87;;;6.90;;
12369;SDS011;6249;52.128;9.986;2023-01-31T13:55:17;18.40;;;9.60;;
12369;SDS011;6249;52.128;9.986;2023-01-31T13:58:46;15.00;;;5.60;;
12369;SDS011;6249;52.128;9.986;2023-01-31T14:02:16;12.93;;;7.00;;
12369;SDS011;6249;52.128;9.986;2023-01-31T14:09:21;13.40;;;6.13;;
12369;SDS011;6249;52.128;9.986;2023-01-31T14:12:49;11.20;;;6.10;;
12369;SDS011;6249;52.128;9.986;2023-01-31T14:16:46;8.37;;;4.43;;
12369;SDS011;6249;52.128;9.986;2023-01-31T14:20:43;10.20;;;4.67;;
12369;SDS011;6249;52.128;9.986;2023-01-31T14:24:01;12.93;;;6.10;;
12369;SDS011;6249;52.128;9.986;2023-01-31T14:27:38;10.40;;;4.80;;
12369;SDS011;6249;52.128;9.986;2023-01-31T14:31:09;13.30;;;4.80;;
12369;SDS011;6249;52.128;9.986;2023-01-31T14:34:32;8.60;;;4.87;;
12369;SDS011;6249;52.128;9.986;2023-01-31T14:52:40;12.40;;;5.30;;
12369;SDS011;6249;52.128;9.986;2023-01-31T15:00:17;8.53;;;4.97;;
12369;SDS011;6249;52.128;9.986;2023-01-31T15:03:51;8.80;;;4.57;;
12369;SDS011;6249;52.128;9.986;2023-01-31T15:07:17;8.97;;;4.83;;
12369;SDS011;6249;52.128;9.986;2023-01-31T15:17:48;10.00;;;6.33;;
12369;SDS011;6249;52.128;9.986;2023-01-31T15:21:17;20.40;;;7.60;;
12369;SDS011;6249;52.128;9.986;2023-01-31T15:24:49;15.00;;;7.50;;
12369;SDS011;6249;52.128;9.986;2023-01-31T15:28:15;14.10;;;6.73;;
12369;SDS011;6249;52.128;9.986;2023-01-31T15:31:42;16.50;;;8.10;;
12369;SDS011;6249;52.128;9.986;2023-01-31T15:38:54;10.30;;;7.37;;
12369;SDS011;6249;52.128;9.986;2023-01-31T15:42:21;11.67;;;7.73;;
12369;SDS011;6249;52.128;9.986;2023-01-31T15:45:49;14.43;;;9.27;;
12369;SDS011;6249;52.128;9.986;2023-01-31T15:49:26;13.63;;;8.60;;
12369;SDS011;6249;52.128;9.986;2023-01-31T15:52:58;24.10;;;10.67;;
12369;SDS011;6249;52.128;9.986;2023-01-31T15:56:24;16.47;;;8.80;;
12369;SDS011;6249;52.128;9.986;2023-01-31T15:59:47;19.03;;;10.27;;
12369;SDS011;6249;52.128;9.986;2023-01-31T16:03:18;19.10;;;9.67;;
12369;SDS011;6249;52.128;9.986;2023-01-31T16:06:41;26.60;;;11.33;;
12369;SDS011;6249;52.128;9.986;2023-01-31T16:10:02;20.67;;;10.57;;
12369;SDS011;6249;52.128;9.986;2023-01-31T16:13:23;18.57;;;12.70;;
12369;SDS011;6249;52.128;9.986;2023-01-31T16:16:45;20.80;;;10.03;;
12369;SDS011;6249;52.128;9.986;2023-01-31T16:24:15;19.37;;;11.93;;
12369;SDS011;6249;52.128;9.986;2023-01-31T16:27:37;19.80;;;10.83;;
12369;SDS011;6249;52.128;9.986;2023-01-31T16:31:11;16.87;;;9.60;;
12369;SDS011;6249;52.128;9.986;2023-01-31T16:34:36;24.43;;;9.40;;
12369;SDS011;6249;52.128;9.986;2023-01-31T16:38:16;14.80;;;8.37;;
12369;SDS011;6249;52.128;9.986;2023-01-31T16:49:03;15.70;;;8.63;;
12369;SDS011;6249;52.128;9.986;2023-01-31T16:52:27;8.67;;;5.17;;
12369;SDS011;6249;52.128;9.986;2023-01-31T16:56:23;13.23;;;6.67;;
12369;SDS011;6249;52.128;9.986;2023-01-31T16:59:43;20.63;;;7.23;;
12369;SDS011;6249;52.128;9.986;2023-01-31T17:03:12;14.67;;;7.87;;
12369;SDS011;6249;52.128;9.986;2023-01-31T17:06:38;13.50;;;6.93;;
12369;SDS011;6249;52.128;9.986;2023-01-31T17:10:05;9.10;;;4.30;;
12369;SDS011;6249;52.128;9.986;2023-01-31T17:13:28;11.67;;;6.47;;
12369;SDS011;6249;52.128;9.986;2023-01-31T17:16:49;23.83;;;9.50;;
12369;SDS011;6249;52.128;9.986;2023-01-31T17:20:14;17.97;;;9.53;;
12369;SDS011;6249;52.128;9.986;2023-01-31T17:23:36;20.00;;;6.17;;
12369;SDS011;6249;52.128;9.986;2023-01-31T17:27:01;23.63;;;9.30;;
12369;SDS011;6249;52.128;9.986;2023-01-31T17:30:24;14.20;;;6.83;;
12369;SDS011;6249;52.128;9.986;2023-01-31T17:33:48;9.07;;;4.13;;
12369;SDS011;6249;52.128;9.986;2023-01-31T17:37:12;15.87;;;7.47;;
12369;SDS011;6249;52.128;9.986;2023-01-31T17:40:33;13.87;;;6.20;;
12369;SDS011;6249;52.128;9.986;2023-01-31T17:43:54;10.20;;;4.73;;
12369;SDS011;6249;52.128;9.986;2023-01-31T17:47:15;14.47;;;5.30;;
12369;SDS011;6249;52.128;9.986;2023-01-31T17:50:36;8.50;;;5.33;;
12369;SDS011;6249;52.128;9.986;2023-01-31T17:53:57;11.00;;;4.40;;
12369;SDS011;6249;52.128;9.986;2023-01-31T17:57:17;5.67;;;3.20;;
12369;SDS011;6249;52.128;9.986;2023-01-31T18:00:38;16.67;;;4.50;;
12369;SDS011;6249;52.128;9.986;2023-01-31T18:04:01;6.50;;;3.13;;
12369;SDS011;6249;52.128;9.986;2023-01-31T18:07:23;13.83;;;3.53;;
12369;SDS011;6249;52.128;9.986;2023-01-31T18:10:44;13.97;;;3.60;;
12369;SDS011;6249;52.128;9.986;2023-01-31T18:14:04;13.60;;;3.40;;
12369;SDS011;6249;52.128;9.986;2023-01-31T18:17:30;7.70;;;2.73;;
12369;SDS011;6249;52.128;9.986;2023-01-31T18:20:55;7.03;;;1.90;;
12369;SDS011;6249;52.128;9.986;2023-01-31T18:24:16;7.23;;;2.50;;
12369;SDS011;6249;52.128;9.986;2023-01-31T18:27:37;6.97;;;2.17;;
12369;SDS011;6249;52.128;9.986;2023-01-31T18:31:04;17.70;;;2.40;;
12369;SDS011;6249;52.128;9.986;2023-01-31T18:34:32;12.30;;;2.10;;
12369;SDS011;6249;52.128;9.986;2023-01-31T18:37:53;10.33;;;2.77;;
12369;SDS011;6249;52.128;9.986;2023-01-31T18:41:15;9.13;;;2.80;;
12369;SDS011;6249;52.128;9.986;2023-01-31T18:44:39;19.53;;;3.47;;
12369;SDS011;6249;52.128;9.986;2023-01-31T18:48:00;12.10;;;2.93;;
12369;SDS011;6249;52.128;9.986;2023-01-31T18:51:23;11.60;;;3.10;;
12369;SDS011;6249;52.128;9.986;2023-01-31T18:54:43;11.27;;;3.73;;
12369;SDS011;6249;52.128;9.986;2023-01-31T18:58:07;12.07;;;4.13;;
12369;SDS011;6249;52.128;9.986;2023-01-31T19:01:28;14.30;;;4.03;;
12369;SDS011;6249;52.128;9.986;2023-01-31T19:04:49;15.73;;;3.90;;
12369;SDS011;6249;52.128;9.986;2023-01-31T19:08:09;20.50;;;3.43;;
12369;SDS011;6249;52.128;9.986;2023-01-31T19:11:30;8.60;;;2.87;;
12369;SDS011;6249;52.128;9.986;2023-01-31T19:14:51;23.33;;;3.40;;
12369;SDS011;6249;52.128;9.986;2023-01-31T19:18:15;10.90;;;2.30;;
12369;SDS011;6249;52.128;9.986;2023-01-31T19:21:35;12.80;;;3.17;;
12369;SDS011;6249;52.128;9.986;2023-01-31T19:24:57;13.53;;;2.73;;
12369;SDS011;6249;52.128;9.986;2023-01-31T19:28:17;14.90;;;3.30;;
12369;SDS011;6249;52.128;9.986;2023-01-31T19:31:42;18.57;;;3.20;;
12369;SDS011;6249;52.128;9.986;2023-01-31T19:35:03;18.37;;;3.67;;
12369;SDS011;6249;52.128;9.986;2023-01-31T19:38:23;21.13;;;4.03;;
12369;SDS011;6249;52.128;9.986;2023-01-31T19:41:46;16.20;;;3.43;;
12369;SDS011;6249;52.128;9.986;2023-01-31T19:45:10;15.90;;;2.50;;
12369;SDS011;6249;52.128;9.986;2023-01-31T19:48:33;22.20;;;3.13;;
12369;SDS011;6249;52.128;9.986;2023-01-31T19:51:56;20.00;;;2.80;;
12369;SDS011;6249;52.128;9.986;2023-01-31T19:55:16;16.53;;;3.30;;
12369;SDS011;6249;52.128;9.986;2023-01-31T19:58:37;16.37;;;3.10;;
12369;SDS011;6249;52.128;9.986;2023-01-31T20:01:58;19.80;;;3.47;;
12369;SDS011;6249;52.128;9.986;2023-01-31T20:05:18;13.13;;;2.53;;
12369;SDS011;6249;52.128;9.986;2023-01-31T20:08:39;20.53;;;3.13;;
12369;SDS011;6249;52.128;9.986;2023-01-31T20:11:59;21.00;;;3.70;;
12369;SDS011;6249;52.128;9.986;2023-01-31T20:15:20;17.70;;;3.73;;
12369;SDS011;6249;52.128;9.986;2023-01-31T20:18:43;18.40;;;3.47;;
12369;SDS011;6249;52.128;9.986;2023-01-31T20:22:04;11.33;;;2.50;;
12369;SDS011;6249;52.128;9.986;2023-01-31T20:25:27;15.80;;;2.80;;
12369;SDS011;6249;52.128;9.986;2023-01-31T20:28:47;19.53;;;2.83;;
12369;SDS011;6249;52.128;9.986;2023-01-31T20:32:10;15.43;;;2.63;;
12369;SDS011;6249;52.128;9.986;2023-01-31T20:35:32;16.53;;;3.23;;
12369;SDS011;6249;52.128;9.986;2023-01-31T20:38:52;9.83;;;2.67;;
12369;SDS011;6249;52.128;9.986;2023-01-31T20:42:15;24.67;;;3.97;;
12369;SDS011;6249;52.128;9.986;2023-01-31T20:45:36;21.47;;;2.90;;
12369;SDS011;6249;52.128;9.986;2023-01-31T20:48:57;51.27;;;4.97;;
12369;SDS011;6249;52.128;9.986;2023-01-31T20:52:17;22.80;;;2.70;;
12369;SDS011;6249;52.128;9.986;2023-01-31T20:55:42;25.73;;;3.50;;
12369;SDS011;6249;52.128;9.986;2023-01-31T20:59:04;14.67;;;2.50;;
12369;SDS011;6249;52.128;9.986;2023-01-31T21:02:25;21.23;;;3.30;;
12369;SDS011;6249;52.128;9.986;2023-01-31T21:05:45;22.33;;;3.10;;
12369;SDS011;6249;52.128;9.986;2023-01-31T21:09:06;19.67;;;3.73;;
12369;SDS011;6249;52.128;9.986;2023-01-31T21:12:29;24.27;;;3.80;;
12369;SDS011;6249;52.128;9.986;2023-01-31T21:15:54;23.30;;;3.47;;
12369;SDS011;6249;52.128;9.986;2023-01-31T21:19:21;22.90;;;3.67;;
12369;SDS011;6249;52.128;9.986;2023-01-31T21:22:41;23.67;;;3.33;;
12369;SDS011;6249;52.128;9.986;2023-01-31T21:26:03;13.37;;;3.33;;
12369;SDS011;6249;52.128;9.986;2023-01-31T21:29:25;23.43;;;3.63;;
12369;SDS011;6249;52.128;9.986;2023-01-31T21:32:45;19.80;;;2.43;;
12369;SDS011;6249;52.128;9.986;2023-01-31T21:36:07;12.70;;;3.00;;
12369;SDS011;6249;52.128;9.986;2023-01-31T21:39:28;23.90;;;3.20;;
12369;SDS011;6249;52.128;9.986;2023-01-31T21:42:50;15.40;;;3.37;;
12369;SDS011;6249;52.128;9.986;2023-01-31T21:46:13;19.20;;;3.03;;
12369;SDS011;6249;52.128;9.986;2023-01-31T21:49:34;20.77;;;3.50;;
12369;SDS011;6249;52.128;9.986;2023-01-31T21:52:56;22.23;;;3.43;;
12369;SDS011;6249;52.128;9.986;2023-01-31T21:56:20;16.30;;;2.47;;
12369;SDS011;6249;52.128;9.986;2023-01-31T21:59:43;17.23;;;3.20;;
12369;SDS011;6249;52.128;9.986;2023-01-31T22:03:05;16.03;;;3.30;;
12369;SDS011;6249;52.128;9.986;2023-01-31T22:06:47;14.50;;;2.50;;
12369;SDS011;6249;52.128;9.986;2023-01-31T22:10:10;13.70;;;2.57;;
12369;SDS011;6249;52.128;9.986;2023-01-31T22:13:30;18.50;;;2.27;;
12369;SDS011;6249;52.128;9.986;2023-01-31T22:16:54;23.97;;;3.30;;
12369;SDS011;6249;52.128;9.986;2023-01-31T22:20:14;18.73;;;3.00;;
12369;SDS011;6249;52.128;9.986;2023-01-31T22:23:36;21.40;;;2.50;;
12369;SDS011;6249;52.128;9.986;2023-01-31T22:26:57;18.47;;;2.80;;
12369;SDS011;6249;52.128;9.986;2023-01-31T22:30:18;22.37;;;3.27;;
12369;SDS011;6249;52.128;9.986;2023-01-31T22:33:41;16.10;;;2.73;;
12369;SDS011;6249;52.128;9.986;2023-01-31T22:37:02;16.40;;;2.50;;
12369;SDS011;6249;52.128;9.986;2023-01-31T22:40:27;21.97;;;3.67;;
12369;SDS011;6249;52.128;9.986;2023-01-31T22:43:49;27.10;;;3.50;;
12369;SDS011;6249;52.128;9.986;2023-01-31T22:47:13;17.87;;;3.40;;
12369;SDS011;6249;52.128;9.986;2023-01-31T22:50:33;26.87;;;2.80;;
12369;SDS011;6249;52.128;9.986;2023-01-31T22:53:54;32.73;;;4.00;;
12369;SDS011;6249;52.128;9.986;2023-01-31T22:57:16;19.87;;;3.80;;